Time,TemperatureF,DewpointF,PressureIn,WindDirection,WindDirectionDegrees,WindSpeedMPH,WindSpeedGustMPH,Humidity,HourlyPrecipIn,Conditions,Clouds,dailyrainin,SoftwareType,DateUTC
2013-08-22 00:01:00,66.9,65.7,29.08,NW,315,2.3,2.3,96,0.00,RA,,0.00,WeatherDisplay:10.37,2013-08-22 05:01:00,
2013-08-22 00:06:00,66.9,65.7,29.08,NW,315,2.3,2.3,96,0.00,RA,,0.00,WeatherDisplay:10.37,2013-08-22 05:06:00,
2013-08-22 00:11:00,67.1,65.9,29.08,NW,315,1.2,0.0,96,0.00,CLR,,0.00,WeatherDisplay:10.37,2013-08-22 05:11:00,
2013-08-22 00:16:00,66.9,65.7,29.08,NW,315,2.3,2.3,96,0.00,CLR,,0.00,WeatherDisplay:10.37,2013-08-22 05:16:00,
2013-08-22 00:21:00,67.1,65.9,29.08,SW,225,1.2,0.0,96,0.00,CLR,,0.00,WeatherDisplay:10.37,2013-08-22 05:21:00,
2013-08-22 00:26:00,67.1,65.9,29.08,West,270,3.5,3.5,96,0.00,CLR,,0.00,WeatherDisplay:10.37,2013-08-22 05:26:00,
2013-08-22 00:31:00,67.1,65.6,29.08,NW,315,1.2,0.0,95,0.00,CLR,,0.00,WeatherDisplay:10.37,2013-08-22 05:31:00,
2013-08-22 00:36:00,66.9,65.7,29.08,North,0,3.5,3.5,96,0.00,CLR,,0.00,WeatherDisplay:10.37,2013-08-22 05:36:00,
2013-08-22 00:41:00,66.9,65.7,29.08,North,0,1.2,0.0,96,0.00,CLR,,0.00,WeatherDisplay:10.37,2013-08-22 05:41:00,
2013-08-22 00:46:00,66.9,65.7,29.08,West,270,3.5,3.5,96,0.00,CLR,,0.00,WeatherDisplay:10.37,2013-08-22 05:46:00,
2013-08-22 00:51:00,66.9,65.4,29.08,West,270,1.2,0.0,95,0.00,CLR,,0.00,WeatherDisplay:10.37,2013-08-22 05:51:00,
2013-08-22 00:56:00,66.9,65.4,29.08,NW,315,1.2,0.0,95,0.00,CLR,,0.00,WeatherDisplay:10.37,2013-08-22 05:56:00,
2013-08-22 01:01:00,66.6,65.1,29.08,North,0,0.0,0.0,95,0.00,CLR,,0.00,WeatherDisplay:10.37,2013-08-22 06:01:00,
2013-08-22 01:06:00,66.6,65.1,29.08,North,0,0.0,0.0,95,0.00,CLR,,0.00,WeatherDisplay:10.37,2013-08-22 06:06:00,
2013-08-22 01:11:00,66.4,65.2,29.09,North,0,0.0,0.0,96,0.00,CLR,,0.00,WeatherDisplay:10.37,2013-08-22 06:11:00,
2013-08-22 01:16:00,66.0,64.8,29.09,North,0,0.0,0.0,96,0.00,CLR,,0.00,WeatherDisplay:10.37,2013-08-22 06:16:00,
2013-08-22 01:21:00,65.8,64.4,29.09,North,0,0.0,0.0,95,0.00,CLR,,0.00,WeatherDisplay:10.37,2013-08-22 06:21:00,
2013-08-22 01:26:00,65.8,64.4,29.09,North,0,0.0,0.0,95,0.00,CLR,,0.00,WeatherDisplay:10.37,2013-08-22 06:26:00,
2013-08-22 01:31:00,65.7,64.5,29.09,North,0,0.0,0.0,96,0.00,CLR,,0.00,WeatherDisplay:10.37,2013-08-22 06:31:00,
2013-08-22 01:36:00,65.5,64.3,29.09,North,0,0.0,0.0,96,0.00,CLR,,0.00,WeatherDisplay:10.37,2013-08-22 06:36:00,
2013-08-22 01:41:00,65.3,63.8,29.10,North,0,0.0,0.0,95,0.00,CLR,,0.00,WeatherDisplay:10.37,2013-08-22 06:41:00,
2013-08-22 01:46:00,65.5,64.3,29.09,North,0,0.0,0.0,96,0.00,CLR,,0.00,WeatherDisplay:10.37,2013-08-22 06:46:00,
2013-08-22 01:51:00,65.3,64.1,29.10,North,0,0.0,0.0,96,0.00,CLR,,0.00,WeatherDisplay:10.37,2013-08-22 06:51:00,
2013-08-22 01:56:00,65.1,64.0,29.11,SW,225,0.0,0.0,96,0.00,CLR,,0.00,WeatherDisplay:10.37,2013-08-22 06:56:00,
2013-08-22 02:01:00,65.1,64.0,29.11,SW,225,0.0,0.0,96,0.00,CLR,,0.00,WeatherDisplay:10.37,2013-08-22 07:01:00,
2013-08-22 02:06:00,65.1,64.0,29.10,SW,225,0.0,0.0,96,0.00,CLR,,0.00,WeatherDisplay:10.37,2013-08-22 07:06:00,
2013-08-22 02:11:00,65.3,64.4,29.10,SW,225,1.2,0.0,97,0.00,CLR,,0.00,WeatherDisplay:10.37,2013-08-22 07:11:00,
2013-08-22 02:16:00,65.1,64.0,29.10,SW,225,0.0,0.0,96,0.00,CLR,,0.00,WeatherDisplay:10.37,2013-08-22 07:16:00,
2013-08-22 02:21:00,64.9,63.8,29.10,West,270,0.0,0.0,96,0.00,CLR,,0.00,WeatherDisplay:10.37,2013-08-22 07:21:00,
2013-08-22 02:26:00,64.9,63.8,29.10,West,270,0.0,0.0,96,0.00,CLR,,0.00,WeatherDisplay:10.37,2013-08-22 07:26:00,
2013-08-22 02:31:00,64.9,63.8,29.10,West,270,0.0,0.0,96,0.00,CLR,,0.00,WeatherDisplay:10.37,2013-08-22 07:31:00,
2013-08-22 02:36:00,64.9,63.8,29.10,West,270,0.0,0.0,96,0.00,CLR,,0.00,WeatherDisplay:10.37,2013-08-22 07:36:00,
2013-08-22 02:41:00,65.1,64.0,29.10,NW,315,1.2,0.0,96,0.00,CLR,,0.00,WeatherDisplay:10.37,2013-08-22 07:41:00,
2013-08-22 02:46:00,65.3,64.4,29.10,NW,315,2.3,0.0,97,0.00,CLR,,0.00,WeatherDisplay:10.37,2013-08-22 07:46:00,
2013-08-22 02:51:00,65.3,64.4,29.10,SW,225,1.2,0.0,97,0.00,CLR,,0.00,WeatherDisplay:10.37,2013-08-22 07:51:00,
2013-08-22 02:56:00,65.3,64.4,29.10,West,270,0.0,0.0,97,0.00,CLR,,0.00,WeatherDisplay:10.37,2013-08-22 07:56:00,
2013-08-22 03:01:00,65.3,64.1,29.11,West,270,0.0,0.0,96,0.00,CLR,,0.00,WeatherDisplay:10.37,2013-08-22 08:01:00,
2013-08-22 03:06:00,65.3,64.1,29.11,West,270,0.0,0.0,96,0.00,CLR,,0.00,WeatherDisplay:10.37,2013-08-22 08:06:00,
2013-08-22 03:11:00,65.1,64.0,29.11,NW,315,0.0,0.0,96,0.00,CLR,,0.00,WeatherDisplay:10.37,2013-08-22 08:11:00,
2013-08-22 03:16:00,65.1,64.0,29.11,NW,315,0.0,0.0,96,0.00,CLR,,0.00,WeatherDisplay:10.37,2013-08-22 08:16:00,
2013-08-22 03:21:00,65.5,64.6,29.10,NW,315,3.5,3.5,97,0.00,CLR,,0.00,WeatherDisplay:10.37,2013-08-22 08:21:00,
2013-08-22 03:26:00,65.3,64.4,29.10,NW,315,2.3,2.3,97,0.00,CLR,,0.00,WeatherDisplay:10.37,2013-08-22 08:26:00,
2013-08-22 03:31:00,65.5,64.6,29.10,NW,315,3.5,3.5,97,0.00,CLR,,0.00,WeatherDisplay:10.37,2013-08-22 08:31:00,
2013-08-22 03:36:00,65.3,64.4,29.10,NW,315,2.3,2.3,97,0.00,CLR,,0.00,WeatherDisplay:10.37,2013-08-22 08:36:00,
2013-08-22 03:41:00,65.3,64.4,29.10,North,0,1.2,0.0,97,0.00,CLR,,0.00,WeatherDisplay:10.37,2013-08-22 08:41:00,
2013-08-22 03:46:00,65.3,64.4,29.10,North,0,1.2,0.0,97,0.00,CLR,,0.00,WeatherDisplay:10.37,2013-08-22 08:46:00,
2013-08-22 03:52:00,65.1,64.2,29.10,North,0,1.2,1.2,97,0.00,CLR,,0.00,WeatherDisplay:10.37,2013-08-22 08:52:00,
2013-08-22 03:57:00,64.9,64.1,29.10,South,180,1.2,1.2,97,0.00,CLR,,0.00,WeatherDisplay:10.37,2013-08-22 08:57:00,
2013-08-22 04:02:00,64.8,63.9,29.11,South,180,0.0,0.0,97,0.00,CLR,,0.00,WeatherDisplay:10.37,2013-08-22 09:02:00,
2013-08-22 04:07:00,64.8,63.9,29.10,South,180,0.0,0.0,97,0.00,CLR,,0.00,WeatherDisplay:10.37,2013-08-22 09:07:00,
2013-08-22 04:12:00,64.6,63.7,29.11,South,180,0.0,0.0,97,0.00,CLR,,0.00,WeatherDisplay:10.37,2013-08-22 09:12:00,
2013-08-22 04:17:00,64.6,63.7,29.11,South,180,1.2,0.0,97,0.00,CLR,,0.00,WeatherDisplay:10.37,2013-08-22 09:17:00,
2013-08-22 04:22:00,64.6,63.7,29.11,SW,225,1.2,0.0,97,0.00,CLR,,0.00,WeatherDisplay:10.37,2013-08-22 09:22:00,
2013-08-22 04:27:00,64.6,63.7,29.11,SW,225,1.2,0.0,97,0.00,CLR,,0.00,WeatherDisplay:10.37,2013-08-22 09:27:00,
2013-08-22 04:32:00,64.6,63.7,29.11,SW,225,0.0,0.0,97,0.00,CLR,,0.00,WeatherDisplay:10.37,2013-08-22 09:32:00,
2013-08-22 04:37:00,64.6,63.7,29.11,SW,225,0.0,0.0,97,0.00,CLR,,0.00,WeatherDisplay:10.37,2013-08-22 09:37:00,
2013-08-22 04:42:00,64.4,63.5,29.10,SW,225,0.0,0.0,97,0.00,CLR,,0.00,WeatherDisplay:10.37,2013-08-22 09:42:00,
2013-08-22 04:47:00,64.4,63.5,29.11,SW,225,0.0,0.0,97,0.00,CLR,,0.00,WeatherDisplay:10.37,2013-08-22 09:47:00,
2013-08-22 04:52:00,64.6,63.7,29.11,NW,315,1.2,0.0,97,0.00,CLR,,0.00,WeatherDisplay:10.37,2013-08-22 09:52:00,
2013-08-22 04:57:00,64.9,64.1,29.11,North,0,3.5,3.5,97,0.00,CLR,,0.00,WeatherDisplay:10.37,2013-08-22 09:57:00,
2013-08-22 05:02:00,64.9,64.1,29.11,NW,315,3.5,3.5,97,0.00,CLR,,0.00,WeatherDisplay:10.37,2013-08-22 10:02:00,
2013-08-22 05:07:00,64.9,64.1,29.11,NW,315,5.8,5.8,97,0.00,CLR,,0.00,WeatherDisplay:10.37,2013-08-22 10:07:00,
2013-08-22 05:12:00,65.1,64.0,29.11,NW,315,4.6,4.6,96,0.00,CLR,,0.00,WeatherDisplay:10.37,2013-08-22 10:12:00,
2013-08-22 05:17:00,65.1,63.7,29.11,NW,315,5.8,5.8,95,0.00,CLR,,0.00,WeatherDisplay:10.37,2013-08-22 10:17:00,
2013-08-22 05:22:00,64.9,63.2,29.11,North,0,5.8,5.8,94,0.00,CLR,,0.00,WeatherDisplay:10.37,2013-08-22 10:22:00,
2013-08-22 05:27:00,65.1,63.0,29.11,NW,315,6.0,6.0,93,0.00,CLR,,0.00,WeatherDisplay:10.37,2013-08-22 10:27:00,
2013-08-22 05:32:00,65.1,62.7,29.11,NW,315,5.8,5.8,92,0.00,CLR,,0.00,WeatherDisplay:10.37,2013-08-22 10:32:00,
2013-08-22 05:37:00,65.1,62.7,29.11,NW,315,4.6,4.6,92,0.00,CLR,,0.00,WeatherDisplay:10.37,2013-08-22 10:37:00,
2013-08-22 05:42:00,65.1,62.7,29.11,NW,315,3.8,3.8,92,0.00,CLR,,0.00,WeatherDisplay:10.37,2013-08-22 10:42:00,
2013-08-22 05:47:00,65.1,62.4,29.11,North,0,4.6,4.6,91,0.00,CLR,,0.00,WeatherDisplay:10.37,2013-08-22 10:47:00,
2013-08-22 07:27:00,64.8,61.4,29.14,North,0,6.9,6.9,89,0.00,CLR,,0.00,WeatherDisplay:10.37,2013-08-22 12:27:00,
2013-08-22 07:32:00,64.8,61.1,29.14,North,0,5.8,5.8,88,0.00,CLR,,0.00,WeatherDisplay:10.37,2013-08-22 12:32:00,
2013-08-22 07:37:00,64.8,60.8,29.14,North,0,5.8,5.8,87,0.00,CLR,,0.00,WeatherDisplay:10.37,2013-08-22 12:37:00,
2013-08-22 07:42:00,64.8,60.8,29.14,North,0,8.1,8.1,87,0.00,CLR,,0.00,WeatherDisplay:10.37,2013-08-22 12:42:00,
2013-08-22 07:47:00,64.9,60.6,29.14,North,0,5.8,5.8,86,0.00,CLR,,0.00,WeatherDisplay:10.37,2013-08-22 12:47:00,
2013-08-22 07:52:00,65.1,60.8,29.14,NE,45,5.4,5.4,86,0.00,CLR,,0.00,WeatherDisplay:10.37,2013-08-22 12:52:00,
2013-08-22 07:57:00,64.9,60.6,29.14,North,0,5.8,5.8,86,0.00,CLR,,0.00,WeatherDisplay:10.37,2013-08-22 12:57:00,
2013-08-22 08:00:00,64.9,60.6,29.15,North,0,5.8,5.8,86,0.00,CLR,,0.00,WeatherDisplay:10.37,2013-08-22 13:00:00,
2013-08-22 08:05:00,64.9,60.6,29.15,North,0,5.8,5.8,86,0.00,CLR,,0.00,WeatherDisplay:10.37,2013-08-22 13:05:00,
2013-08-22 08:10:00,65.1,60.8,29.15,North,0,5.8,5.8,86,0.00,CLR,,0.00,WeatherDisplay:10.37,2013-08-22 13:10:00,
2013-08-22 08:15:00,65.3,60.7,29.15,North,0,6.9,6.9,85,0.00,CLR,,0.00,WeatherDisplay:10.37,2013-08-22 13:15:00,
2013-08-22 08:20:00,65.3,60.7,29.15,North,0,6.9,6.9,85,0.00,CLR,,0.00,WeatherDisplay:10.37,2013-08-22 13:20:00,
2013-08-22 08:25:00,65.7,60.4,29.15,North,0,6.9,6.9,83,0.00,CLR,,0.00,WeatherDisplay:10.37,2013-08-22 13:25:00,
2013-08-22 08:30:00,65.7,60.4,29.15,North,0,8.1,8.1,83,0.00,CLR,,0.00,WeatherDisplay:10.37,2013-08-22 13:30:00,
2013-08-22 08:35:00,65.7,60.0,29.15,North,0,8.1,8.1,82,0.00,CLR,,0.00,WeatherDisplay:10.37,2013-08-22 13:35:00,
2013-08-22 08:40:00,65.7,59.7,29.15,North,0,8.1,8.1,81,0.00,CLR,,0.00,WeatherDisplay:10.37,2013-08-22 13:40:00,
2013-08-22 08:45:00,65.7,59.7,29.15,North,0,5.8,5.8,81,0.00,CLR,,0.00,WeatherDisplay:10.37,2013-08-22 13:45:00,
2013-08-22 08:50:00,66.0,59.7,29.15,North,0,4.6,4.6,80,0.00,CLR,,0.00,WeatherDisplay:10.37,2013-08-22 13:50:00,
2013-08-22 08:55:00,66.0,59.7,29.15,NE,45,5.8,5.8,80,0.00,CLR,,0.00,WeatherDisplay:10.37,2013-08-22 13:55:00,
2013-08-22 09:00:00,66.0,59.7,29.15,North,0,6.9,6.9,80,0.00,CLR,,0.00,WeatherDisplay:10.37,2013-08-22 14:00:00,
2013-08-22 09:05:00,66.2,59.5,29.15,NE,45,6.9,6.9,79,0.00,CLR,,0.00,WeatherDisplay:10.37,2013-08-22 14:05:00,
2013-08-22 09:10:00,66.4,59.7,29.15,North,0,4.6,4.6,79,0.00,CLR,,0.00,WeatherDisplay:10.37,2013-08-22 14:10:00,
2013-08-22 09:15:00,66.6,59.8,29.15,North,0,6.9,6.9,79,0.00,CLR,,0.00,WeatherDisplay:10.37,2013-08-22 14:15:00,
2013-08-22 09:20:00,66.7,59.7,29.16,North,0,5.8,5.8,78,0.00,CLR,,0.00,WeatherDisplay:10.37,2013-08-22 14:20:00,
2013-08-22 09:25:00,67.1,59.6,29.15,NE,45,5.8,5.8,77,0.00,CLR,,0.00,WeatherDisplay:10.37,2013-08-22 14:25:00,
2013-08-22 09:30:00,67.1,59.6,29.15,North,0,4.6,4.6,77,0.00,CLR,,0.00,WeatherDisplay:10.37,2013-08-22 14:30:00,
2013-08-22 09:35:00,67.1,59.6,29.15,SW,225,4.6,4.6,77,0.00,CLR,,0.00,WeatherDisplay:10.37,2013-08-22 14:35:00,
2013-08-22 09:40:00,67.5,59.6,29.16,North,0,3.5,3.5,76,0.00,CLR,,0.00,WeatherDisplay:10.37,2013-08-22 14:40:00,
2013-08-22 09:45:00,67.5,59.6,29.16,NE,45,4.6,4.6,76,0.00,CLR,,0.00,WeatherDisplay:10.37,2013-08-22 14:45:00,
2013-08-22 09:50:00,67.6,59.4,29.16,North,0,5.8,5.8,75,0.00,CLR,,0.00,WeatherDisplay:10.37,2013-08-22 14:50:00,
2013-08-22 09:55:00,67.8,59.2,29.17,North,0,3.5,3.5,74,0.00,CLR,,0.00,WeatherDisplay:10.37,2013-08-22 14:55:00,
2013-08-22 10:00:00,68.2,59.2,29.17,NW,315,3.5,3.5,73,0.00,CLR,,0.00,WeatherDisplay:10.37,2013-08-22 15:00:00,
2013-08-22 10:06:00,68.2,59.2,29.18,North,0,2.3,2.3,73,0.00,CLR,,0.00,WeatherDisplay:10.37,2013-08-22 15:06:00,
2013-08-22 10:11:00,68.5,59.5,29.18,NW,315,3.5,3.5,73,0.00,CLR,,0.00,WeatherDisplay:10.37,2013-08-22 15:11:00,
2013-08-22 10:16:00,68.4,59.4,29.18,NW,315,2.3,0.0,73,0.00,CLR,,0.00,WeatherDisplay:10.37,2013-08-22 15:16:00,
2013-08-22 10:21:00,68.4,59.4,29.18,NW,315,2.3,0.0,73,0.00,CLR,,0.00,WeatherDisplay:10.37,2013-08-22 15:21:00,
2013-08-22 10:26:00,68.4,60.1,29.18,NW,315,3.5,3.5,75,0.00,CLR,,0.00,WeatherDisplay:10.37,2013-08-22 15:26:00,
2013-08-22 10:31:00,68.4,60.1,29.18,North,0,4.6,4.6,75,0.00,CLR,,0.00,WeatherDisplay:10.37,2013-08-22 15:31:00,
2013-08-22 10:36:00,68.5,60.3,29.18,NW,315,5.8,5.8,75,0.00,CLR,,0.00,WeatherDisplay:10.37,2013-08-22 15:36:00,
2013-08-22 10:41:00,68.5,60.7,29.18,North,0,8.1,8.1,76,0.00,CLR,,0.00,WeatherDisplay:10.37,2013-08-22 15:41:00,
2013-08-22 10:46:00,68.7,61.2,29.18,North,0,3.5,3.5,77,0.00,CLR,,0.00,WeatherDisplay:10.37,2013-08-22 15:46:00,
2013-08-22 10:51:00,69.1,61.2,29.17,West,270,2.3,0.0,76,0.00,CLR,,0.00,WeatherDisplay:10.37,2013-08-22 15:51:00,
2013-08-22 10:56:00,69.6,61.3,29.18,NW,315,1.2,0.0,75,0.00,CLR,,0.00,WeatherDisplay:10.37,2013-08-22 15:56:00,
2013-08-22 11:01:00,69.8,61.1,29.18,SW,225,3.5,0.0,74,0.00,CLR,,0.00,WeatherDisplay:10.37,2013-08-22 16:01:00,
2013-08-22 11:06:00,70.2,61.5,29.18,West,270,1.2,0.0,74,0.00,CLR,,0.00,WeatherDisplay:10.37,2013-08-22 16:06:00,
2013-08-22 11:11:00,70.2,61.1,29.18,NW,315,5.8,5.8,73,0.00,CLR,,0.00,WeatherDisplay:10.37,2013-08-22 16:11:00,
2013-08-22 11:16:00,70.2,61.9,29.18,NW,315,3.5,0.0,75,0.00,CLR,,0.00,WeatherDisplay:10.37,2013-08-22 16:16:00,
2013-08-22 11:21:00,70.5,61.8,29.18,NW,315,2.3,2.3,74,0.00,CLR,,0.00,WeatherDisplay:10.37,2013-08-22 16:21:00,
2013-08-22 11:26:00,71.6,62.5,29.19,NW,315,2.3,0.0,73,0.00,CLR,,0.00,WeatherDisplay:10.37,2013-08-22 16:26:00,
2013-08-22 11:31:00,72.0,61.6,29.18,NW,315,4.6,4.6,70,0.00,CLR,,0.00,WeatherDisplay:10.37,2013-08-22 16:31:00,
2013-08-22 11:36:00,72.3,61.6,29.19,NE,45,2.3,2.3,69,0.00,CLR,,0.00,WeatherDisplay:10.37,2013-08-22 16:36:00,
2013-08-22 11:41:00,73.0,61.9,29.19,East,90,4.6,0.0,68,0.00,CLR,,0.00,WeatherDisplay:10.37,2013-08-22 16:41:00,
2013-08-22 11:46:00,73.0,61.9,29.18,NE,45,3.5,3.5,68,0.00,CLR,,0.00,WeatherDisplay:10.37,2013-08-22 16:46:00,
2013-08-22 11:51:00,73.9,61.9,29.18,NE,45,3.5,3.5,66,0.00,CLR,,0.00,WeatherDisplay:10.37,2013-08-22 16:51:00,
2013-08-22 11:56:00,74.3,61.3,29.18,NNW,338,3.5,3.5,64,0.00,CLR,,0.00,WeatherDisplay:10.37,2013-08-22 16:56:00,
2013-08-22 12:01:00,74.7,62.1,29.18,North,0,1.2,0.0,65,0.00,CLR,,0.00,WeatherDisplay:10.37,2013-08-22 17:01:00,
2013-08-22 12:06:00,74.8,61.8,29.18,NE,45,2.3,2.3,64,0.00,CLR,,0.00,WeatherDisplay:10.37,2013-08-22 17:06:00,
2013-08-22 12:11:00,74.8,62.3,29.18,SE,135,2.3,2.3,65,0.00,CLR,,0.00,WeatherDisplay:10.37,2013-08-22 17:11:00,
2013-08-22 12:16:00,75.4,63.2,29.18,West,270,1.2,0.0,66,0.00,CLR,,0.00,WeatherDisplay:10.37,2013-08-22 17:16:00,
2013-08-22 12:21:00,75.9,62.9,29.18,SE,135,1.2,1.2,64,0.00,CLR,,0.00,WeatherDisplay:10.37,2013-08-22 17:21:00,
2013-08-22 12:26:00,75.6,62.5,29.18,SE,135,2.3,0.0,64,0.00,CLR,,0.00,WeatherDisplay:10.37,2013-08-22 17:26:00,
2013-08-22 12:31:00,75.6,62.5,29.18,SE,135,2.3,2.3,64,0.00,CLR,,0.00,WeatherDisplay:10.37,2013-08-22 17:31:00,
2013-08-22 12:36:00,75.7,62.7,29.18,SE,135,1.2,0.0,64,0.00,CLR,,0.00,WeatherDisplay:10.37,2013-08-22 17:36:00,
2013-08-22 12:41:00,75.4,62.8,29.17,NW,315,1.2,0.0,65,0.00,CLR,,0.00,WeatherDisplay:10.37,2013-08-22 17:41:00,
2013-08-22 12:46:00,75.6,62.5,29.17,South,180,2.3,2.3,64,0.00,CLR,,0.00,WeatherDisplay:10.37,2013-08-22 17:46:00,
2013-08-22 12:51:00,75.7,63.1,29.17,SW,225,2.3,2.3,65,0.00,CLR,,0.00,WeatherDisplay:10.37,2013-08-22 17:51:00,
2013-08-22 12:56:00,76.1,62.6,29.17,South,180,3.5,3.5,63,0.00,CLR,,0.00,WeatherDisplay:10.37,2013-08-22 17:56:00,
2013-08-22 13:01:00,76.8,62.8,29.17,SW,225,2.3,0.0,62,0.00,CLR,,0.00,WeatherDisplay:10.37,2013-08-22 18:01:00,
2013-08-22 13:06:00,77.4,63.8,29.17,South,180,2.3,0.0,63,0.00,CLR,,0.00,WeatherDisplay:10.37,2013-08-22 18:06:00,
2013-08-22 13:11:00,78.3,62.3,29.17,NE,45,2.3,2.3,58,0.00,CLR,,0.00,WeatherDisplay:10.37,2013-08-22 18:11:00,
2013-08-22 13:16:00,78.8,62.3,29.17,North,0,1.2,0.0,57,0.00,CLR,,0.00,WeatherDisplay:10.37,2013-08-22 18:16:00,
2013-08-22 13:21:00,79.9,63.8,29.17,SW,225,1.2,0.0,58,0.00,CLR,,0.00,WeatherDisplay:10.37,2013-08-22 18:21:00,
2013-08-22 13:26:00,80.8,62.1,29.17,NE,45,3.5,3.5,53,0.00,CLR,,0.00,WeatherDisplay:10.37,2013-08-22 18:26:00,
2013-08-22 13:31:00,79.7,61.1,29.17,North,0,5.8,5.8,53,0.00,CLR,,0.00,WeatherDisplay:10.37,2013-08-22 18:31:00,
2013-08-22 13:36:00,79.9,60.1,29.17,NE,45,3.5,3.5,51,0.00,CLR,,0.00,WeatherDisplay:10.37,2013-08-22 18:36:00,
2013-08-22 13:41:00,79.9,60.7,29.17,NE,45,4.6,4.6,52,0.00,CLR,,0.00,WeatherDisplay:10.37,2013-08-22 18:41:00,
2013-08-22 13:46:00,80.2,60.5,29.16,North,0,3.5,3.5,51,0.00,CLR,,0.00,WeatherDisplay:10.37,2013-08-22 18:46:00,
2013-08-22 13:51:00,80.2,59.3,29.17,North,0,5.8,5.8,49,0.00,CLR,,0.00,WeatherDisplay:10.37,2013-08-22 18:51:00,
2013-08-22 13:56:00,81.0,60.0,29.16,NE,45,5.8,5.8,49,0.00,CLR,,0.00,WeatherDisplay:10.37,2013-08-22 18:56:00,
2013-08-22 14:01:00,81.3,60.3,29.16,NE,45,4.6,4.6,49,0.00,CLR,,0.00,WeatherDisplay:10.37,2013-08-22 19:01:00,
2013-08-22 14:06:00,81.5,59.9,29.16,North,0,5.8,5.8,48,0.00,CLR,,0.00,WeatherDisplay:10.37,2013-08-22 19:06:00,
2013-08-22 14:11:00,80.8,58.7,29.16,East,90,5.8,5.8,47,0.00,CLR,,0.00,WeatherDisplay:10.37,2013-08-22 19:11:00,
2013-08-22 14:16:00,80.1,59.2,29.16,East,90,5.8,5.8,49,0.00,CLR,,0.00,WeatherDisplay:10.37,2013-08-22 19:16:00,
2013-08-22 14:21:00,79.9,60.1,29.16,East,90,5.8,5.8,51,0.00,CLR,,0.00,WeatherDisplay:10.37,2013-08-22 19:21:00,
2013-08-22 14:26:00,80.6,60.2,29.16,NE,45,4.6,4.6,50,0.00,CLR,,0.00,WeatherDisplay:10.37,2013-08-22 19:26:00,
2013-08-22 14:31:00,81.0,59.4,29.16,NE,45,4.6,4.6,48,0.00,CLR,,0.00,WeatherDisplay:10.37,2013-08-22 19:31:00,
2013-08-22 14:36:00,81.3,57.9,29.16,North,0,8.1,8.1,45,0.00,CLR,,0.00,WeatherDisplay:10.37,2013-08-22 19:36:00,
2013-08-22 14:41:00,82.0,58.6,29.16,NE,45,4.6,4.6,45,0.00,CLR,,0.00,WeatherDisplay:10.37,2013-08-22 19:41:00,
2013-08-22 14:46:00,82.6,56.5,29.16,NE,45,6.9,6.9,41,0.00,CLR,,0.00,WeatherDisplay:10.37,2013-08-22 19:46:00,
2013-08-22 14:51:00,82.0,58.0,29.15,NE,45,5.8,5.8,44,0.00,CLR,,0.00,WeatherDisplay:10.37,2013-08-22 19:51:00,
2013-08-22 14:56:00,82.6,57.2,29.15,NE,45,5.8,5.8,42,0.00,CLR,,0.00,WeatherDisplay:10.37,2013-08-22 19:56:00,
2013-08-22 15:01:00,82.4,58.9,29.15,NE,45,6.9,6.9,45,0.00,CLR,,0.00,WeatherDisplay:10.37,2013-08-22 20:01:00,
2013-08-22 15:06:00,82.4,57.0,29.15,East,90,4.6,4.6,42,0.00,CLR,,0.00,WeatherDisplay:10.37,2013-08-22 20:06:00,
2013-08-22 15:11:00,82.0,58.0,29.15,East,90,6.9,6.9,44,0.00,CLR,,0.00,WeatherDisplay:10.37,2013-08-22 20:11:00,
2013-08-22 15:16:00,81.9,56.5,29.15,East,90,5.8,5.8,42,0.00,CLR,,0.00,WeatherDisplay:10.37,2013-08-22 20:16:00,
2013-08-22 15:21:00,82.2,56.2,29.15,NE,45,6.9,6.9,41,0.00,CLR,,0.00,WeatherDisplay:10.37,2013-08-22 20:21:00,
2013-08-22 15:26:00,82.4,55.7,29.15,NE,45,6.9,6.9,40,0.00,CLR,,0.00,WeatherDisplay:10.37,2013-08-22 20:26:00,
2013-08-22 15:31:00,82.9,57.5,29.15,East,90,6.9,6.9,42,0.00,CLR,,0.00,WeatherDisplay:10.37,2013-08-22 20:31:00,
2013-08-22 15:36:00,83.1,56.3,29.15,NE,45,4.6,4.6,40,0.00,CLR,,0.00,WeatherDisplay:10.37,2013-08-22 20:36:00,
2013-08-22 15:41:00,84.4,57.4,29.15,SE,135,3.5,3.5,40,0.00,CLR,,0.00,WeatherDisplay:10.37,2013-08-22 20:41:00,
2013-08-22 15:46:00,86.2,57.6,29.15,East,90,3.5,3.5,38,0.00,CLR,,0.00,WeatherDisplay:10.37,2013-08-22 20:46:00,
2013-08-22 15:51:00,86.0,58.2,29.15,East,90,3.5,3.5,39,0.00,CLR,,0.00,WeatherDisplay:10.37,2013-08-22 20:51:00,
2013-08-22 15:56:00,85.1,55.9,29.15,East,90,5.8,5.8,37,0.00,CLR,,0.00,WeatherDisplay:10.37,2013-08-22 20:56:00,
2013-08-22 16:01:00,83.7,55.4,29.15,East,90,4.6,4.6,38,0.00,CLR,,0.00,WeatherDisplay:10.37,2013-08-22 21:01:00,
2013-08-22 16:06:00,83.7,54.6,29.14,East,90,3.5,3.5,37,0.00,CLR,,0.00,WeatherDisplay:10.37,2013-08-22 21:06:00,
2013-08-22 16:11:00,83.5,57.3,29.14,West,270,5.8,0.0,41,0.00,CLR,,0.00,WeatherDisplay:10.37,2013-08-22 21:11:00,
2013-08-22 16:16:00,83.7,56.8,29.14,East,90,5.8,5.8,40,0.00,CLR,,0.00,WeatherDisplay:10.37,2013-08-22 21:16:00,
2013-08-22 16:21:00,83.7,55.4,29.15,NE,45,5.8,5.8,38,0.00,CLR,,0.00,WeatherDisplay:10.37,2013-08-22 21:21:00,
2013-08-22 16:26:00,83.3,56.5,29.15,NE,45,5.8,5.8,40,0.00,CLR,,0.00,WeatherDisplay:10.37,2013-08-22 21:26:00,
2013-08-22 16:31:00,83.3,53.6,29.15,NE,45,4.6,4.6,36,0.00,CLR,,0.00,WeatherDisplay:10.37,2013-08-22 21:31:00,
2013-08-22 16:36:00,83.5,53.7,29.15,NE,45,6.9,6.9,36,0.00,CLR,,0.00,WeatherDisplay:10.37,2013-08-22 21:36:00,
2013-08-22 16:41:00,84.2,53.6,29.15,North,0,3.5,3.5,35,0.00,CLR,,0.00,WeatherDisplay:10.37,2013-08-22 21:41:00,
2013-08-22 16:46:00,85.3,54.5,29.16,East,90,5.8,5.8,35,0.00,CLR,,0.00,WeatherDisplay:10.37,2013-08-22 21:46:00,
2013-08-22 16:51:00,84.4,54.5,29.15,East,90,5.8,5.8,36,0.00,CLR,,0.00,WeatherDisplay:10.37,2013-08-22 21:51:00,
2013-08-22 16:56:00,83.8,55.5,29.15,East,90,4.6,4.6,38,0.00,CLR,,0.00,WeatherDisplay:10.37,2013-08-22 21:56:00,
2013-08-22 17:01:00,84.4,53.7,29.15,NE,45,3.5,3.5,35,0.00,CLR,,0.00,WeatherDisplay:10.37,2013-08-22 22:01:00,
2013-08-22 17:06:00,85.3,52.1,29.15,NW,315,3.5,3.5,32,0.00,CLR,,0.00,WeatherDisplay:10.37,2013-08-22 22:06:00,
2013-08-22 17:11:00,85.6,56.4,29.15,North,0,5.8,5.8,37,0.00,CLR,,0.00,WeatherDisplay:10.37,2013-08-22 22:11:00,
2013-08-22 17:16:00,86.2,57.6,29.15,NE,45,2.3,2.3,38,0.00,CLR,,0.00,WeatherDisplay:10.37,2013-08-22 22:16:00,
2013-08-22 17:21:00,86.5,55.6,29.15,East,90,2.3,2.3,35,0.00,CLR,,0.00,WeatherDisplay:10.37,2013-08-22 22:21:00,
2013-08-22 17:26:00,86.5,55.6,29.15,East,90,2.3,2.3,35,0.00,CLR,,0.00,WeatherDisplay:10.37,2013-08-22 22:26:00,
2013-08-22 18:29:00,86.5,55.6,29.15,East,90,2.3,2.3,35,0.00,CLR,,0.00,WeatherDisplay:10.37,2013-08-22 23:29:00,
2013-08-22 19:28:00,86.5,55.6,29.15,East,90,2.3,2.3,35,0.00,CLR,,0.00,WeatherDisplay:10.37,2013-08-23 00:28:00,
2013-08-22 19:33:00,86.5,55.6,29.15,East,90,2.3,2.3,35,0.00,CLR,,0.00,WeatherDisplay:10.37,2013-08-23 00:33:00,
2013-08-22 19:38:00,86.5,55.6,29.15,East,90,2.3,2.3,35,0.00,CLR,,0.00,WeatherDisplay:10.37,2013-08-23 00:38:00,
2013-08-22 19:43:00,86.5,55.6,29.15,East,90,2.3,2.3,35,0.00,CLR,,0.00,WeatherDisplay:10.37,2013-08-23 00:43:00,
2013-08-22 19:48:00,86.5,55.6,29.15,East,90,2.3,2.3,35,0.00,CLR,,0.00,WeatherDisplay:10.37,2013-08-23 00:48:00,
2013-08-22 19:53:00,86.5,55.6,29.15,East,90,2.3,2.3,35,0.00,CLR,,0.00,WeatherDisplay:10.37,2013-08-23 00:53:00,